Archival Weather

Chicago O'Hare International

Chicago, Illinois (KORD)

Report from: Sunday, March 6, 2022 7:51 PM CST
Current time: Saturday, February 4, 2023 11:03 PM CST

Current weather
Weather history
Weather forecast

Temperature2.8°C (37.0°F)
Wind chill0.7°C (33.3°F)
Dew point-2.2°C (28.0°F)
Winds 4 kts (2.1 m/s, 4.6 mph) North-Northeast (20°)
Visibility10 mi. (16.1 km)
Clouds Scattered clouds 2,600 ft. (792 m)
Ceiling: Broken clouds 22,000 ft. (6,706 m)
Altimeter29.98 in.Hg (1015 mB)
Relative humidity70 %
Density altitude-1,469 ft. (-448 m)
Sea-level pressure101.6 kPa (1016 mB, 29.99 in.Hg)
Remarks System requires maintenance
Automated weather observing station with precipitation discriminator
Flight conditions Visual Meteorological Conditions
Raw dataKORD 070151Z 02004KT 10SM SCT026 BKN220 03/M02 A2998 RMK AO2 SLP157 T00281022 $
An unhandled exception has occurred. See browser dev tools for details. Reload 🗙